createdAt,value
2023-11-07T00:00:10.917Z,0.77
2023-11-07T00:02:37.642Z,0.90
2023-11-07T00:05:05.086Z,0.95
2023-11-07T00:07:31.640Z,0.88
2023-11-07T00:09:58.055Z,1.20
2023-11-07T00:12:24.514Z,1.30
2023-11-07T00:14:52.037Z,1.05
2023-11-07T00:17:21.805Z,1.20
2023-11-07T00:19:48.299Z,0.90
2023-11-07T00:22:14.900Z,1.40
2023-11-07T00:24:41.517Z,0.97
2023-11-07T00:27:07.941Z,1.00
2023-11-07T00:29:35.221Z,0.95
2023-11-07T00:32:01.749Z,1.20
2023-11-07T00:34:29.140Z,0.65
2023-11-07T00:36:55.658Z,1.03
2023-11-07T00:39:22.144Z,0.80
2023-11-07T00:41:48.946Z,0.88
2023-11-07T00:44:15.549Z,0.80
2023-11-07T00:46:42.042Z,0.80
2023-11-07T00:49:08.633Z,0.90
2023-11-07T00:51:35.233Z,0.98
2023-11-07T00:54:01.853Z,1.00
2023-11-07T00:56:28.363Z,1.00
2023-11-07T00:58:54.753Z,0.75
2023-11-07T01:01:21.457Z,1.50
2023-11-07T01:03:48.320Z,0.73
2023-11-07T01:06:14.964Z,0.77
2023-11-07T01:08:41.717Z,0.73
2023-11-07T01:11:08.837Z,0.95
2023-11-07T01:13:35.540Z,0.87
2023-11-07T01:16:02.313Z,0.75
2023-11-07T01:18:28.944Z,0.60
2023-11-07T01:20:55.562Z,0.68
2023-11-07T01:23:22.067Z,0.70
2023-11-07T01:25:48.510Z,1.23
2023-11-07T01:28:16.351Z,0.90
2023-11-07T01:30:42.835Z,0.95
2023-11-07T01:33:11.156Z,0.90
2023-11-07T01:35:37.745Z,0.50
2023-11-07T01:38:04.610Z,0.57
2023-11-07T01:40:31.165Z,0.60
2023-11-07T01:42:57.669Z,1.00
2023-11-07T01:45:25.068Z,1.30
2023-11-07T01:50:19.065Z,0.93
2023-11-07T01:52:45.773Z,1.08
2023-11-07T01:55:17.629Z,0.77
2023-11-07T01:57:45.801Z,0.93
2023-11-07T02:00:14.048Z,1.05
2023-11-07T02:02:41.639Z,0.93
2023-11-07T02:05:10.998Z,1.20
2023-11-07T02:07:40.756Z,0.90
2023-11-07T02:10:07.806Z,0.80
2023-11-07T02:12:34.577Z,0.80
2023-11-07T02:15:18.349Z,0.80
2023-11-07T02:17:45.401Z,0.80
2023-11-07T02:20:15.263Z,0.73
2023-11-07T02:22:43.575Z,0.65
2023-11-07T02:25:17.361Z,0.60
2023-11-07T02:27:44.000Z,0.70
2023-11-07T02:30:14.679Z,0.68
2023-11-07T02:32:42.153Z,0.80
2023-11-07T02:35:12.049Z,0.60
2023-11-07T02:37:39.300Z,0.60
2023-11-07T02:40:07.526Z,0.60
2023-11-07T02:42:34.366Z,0.75
2023-11-07T02:45:00.948Z,0.70
2023-11-07T02:47:27.533Z,0.60
2023-11-07T02:49:55.154Z,0.50
2023-11-07T02:52:22.226Z,0.70
2023-11-07T02:54:49.894Z,0.70
2023-11-07T02:57:16.705Z,0.77
2023-11-07T02:59:47.267Z,0.95
2023-11-07T03:02:14.144Z,1.10
2023-11-07T03:04:40.614Z,1.00
2023-11-07T03:07:08.281Z,0.60
2023-11-07T03:09:36.449Z,1.15
2023-11-07T03:12:03.888Z,0.73
2023-11-07T03:14:30.415Z,0.80
2023-11-07T03:16:56.848Z,0.93
2023-11-07T03:19:23.391Z,0.80
2023-11-07T03:21:49.857Z,0.88
2023-11-07T03:24:18.497Z,0.90
2023-11-07T03:26:46.272Z,1.17
2023-11-07T03:29:14.011Z,1.17
2023-11-07T03:31:41.101Z,1.08
2023-11-07T03:34:07.709Z,0.88
2023-11-07T03:36:34.263Z,0.60
2023-11-07T03:39:01.022Z,1.02
2023-11-07T03:41:27.822Z,1.00
2023-11-07T03:43:54.795Z,0.70
2023-11-07T03:46:21.731Z,0.80
2023-11-07T03:48:48.519Z,0.90
2023-11-07T03:51:15.395Z,1.50
2023-11-07T03:53:42.325Z,0.70
2023-11-07T03:56:10.336Z,1.02
2023-11-07T03:58:37.003Z,1.00
2023-11-07T04:01:04.751Z,1.17
2023-11-07T04:03:31.273Z,0.73
2023-11-07T04:05:57.773Z,0.83
2023-11-07T04:08:24.415Z,0.65
2023-11-07T04:10:50.857Z,0.98
2023-11-07T04:13:17.319Z,0.75
2023-11-07T04:15:43.788Z,0.80
2023-11-07T04:18:13.463Z,0.77
2023-11-07T04:20:43.470Z,1.00
2023-11-07T04:23:10.630Z,0.70
2023-11-07T04:25:37.742Z,0.85
2023-11-07T04:28:05.068Z,0.90
2023-11-07T04:30:31.803Z,1.40
2023-11-07T04:32:58.437Z,0.98
2023-11-07T04:35:25.216Z,0.90
2023-11-07T04:37:51.686Z,1.27
2023-11-07T04:40:20.182Z,1.08
2023-11-07T04:42:46.929Z,0.70
2023-11-07T04:45:13.495Z,0.80
2023-11-07T04:47:40.689Z,0.80
2023-11-07T04:50:07.497Z,1.00
2023-11-07T04:52:34.918Z,0.80
2023-11-07T04:55:01.985Z,0.93
2023-11-07T04:57:28.941Z,0.80
2023-11-07T04:59:55.697Z,1.10
2023-11-07T05:02:22.980Z,0.70
2023-11-07T05:04:49.473Z,1.38
2023-11-07T05:07:16.138Z,0.73
2023-11-07T05:09:42.652Z,0.85
2023-11-07T05:12:13.910Z,1.00
2023-11-07T05:14:41.846Z,1.15
2023-11-07T05:17:08.315Z,0.88
2023-11-07T05:19:34.732Z,1.00
2023-11-07T05:22:01.192Z,1.10
2023-11-07T05:24:27.597Z,1.40
2023-11-07T05:26:54.032Z,0.98
2023-11-07T05:29:20.657Z,1.20
2023-11-07T05:31:48.065Z,1.07
2023-11-07T05:34:14.766Z,1.48
2023-11-07T05:36:41.274Z,1.25
2023-11-07T05:39:07.754Z,1.48
2023-11-07T05:41:34.820Z,1.20
2023-11-07T05:44:01.306Z,1.57
2023-11-07T05:46:28.333Z,1.20
2023-11-07T05:48:55.040Z,1.30
2023-11-07T05:51:24.564Z,1.40
2023-11-07T05:53:54.210Z,1.80
2023-11-07T05:56:20.829Z,1.73
2023-11-07T05:58:49.606Z,1.80
2023-11-07T06:01:16.479Z,1.60
2023-11-07T06:03:43.055Z,1.70
2023-11-07T06:06:09.800Z,1.98
2023-11-07T06:08:36.624Z,1.80
2023-11-07T06:11:03.501Z,1.75
2023-11-07T06:13:30.233Z,2.20
2023-11-07T06:15:56.743Z,1.80
2023-11-07T06:18:23.381Z,2.38
2023-11-07T06:20:50.805Z,2.07
2023-11-07T06:23:17.367Z,2.50
2023-11-07T06:25:43.790Z,2.50
2023-11-07T06:28:10.191Z,2.38
2023-11-07T06:30:37.441Z,3.20
2023-11-07T06:33:04.049Z,1.93
2023-11-07T06:35:30.788Z,2.72
2023-11-07T06:37:57.284Z,2.70
2023-11-07T06:40:24.684Z,2.17
2023-11-07T06:42:52.822Z,2.55
2023-11-07T06:45:19.822Z,2.70
2023-11-07T06:47:47.832Z,2.63
2023-11-07T06:50:16.643Z,2.30
2023-11-07T06:52:50.301Z,2.50
2023-11-07T06:55:20.206Z,2.78
2023-11-07T06:57:46.698Z,2.33
2023-11-07T07:00:13.543Z,2.55
2023-11-07T07:02:41.767Z,2.83
2023-11-07T07:05:13.896Z,2.95
2023-11-07T07:07:43.968Z,3.17
2023-11-07T07:10:11.669Z,3.00
2023-11-07T07:12:38.716Z,3.03
2023-11-07T07:15:09.221Z,3.10
2023-11-07T07:17:35.820Z,2.83
2023-11-07T07:20:04.354Z,2.92
2023-11-07T07:22:30.805Z,2.93
2023-11-07T07:25:00.855Z,2.97
2023-11-07T07:27:30.258Z,2.83
2023-11-07T07:29:58.114Z,3.00
2023-11-07T07:32:25.254Z,2.88
2023-11-07T07:34:52.880Z,2.70
2023-11-07T07:37:21.981Z,3.28
2023-11-07T07:39:48.577Z,3.05
2023-11-07T07:42:18.317Z,2.58
2023-11-07T07:44:45.918Z,2.53
2023-11-07T07:47:12.881Z,2.60
2023-11-07T07:49:41.185Z,2.15
2023-11-07T07:52:11.384Z,3.05
2023-11-07T07:55:00.424Z,2.20
2023-11-07T07:57:25.333Z,2.13
2023-11-07T07:59:51.894Z,2.60
2023-11-07T08:02:18.724Z,2.67
2023-11-07T08:04:47.587Z,2.38
2023-11-07T08:07:17.625Z,2.63
2023-11-07T08:09:45.502Z,2.40
2023-11-07T08:12:13.497Z,2.47
2023-11-07T08:14:42.227Z,2.47
2023-11-07T08:17:10.712Z,2.60
2023-11-07T08:19:37.591Z,1.95
2023-11-07T08:22:08.404Z,2.95
2023-11-07T08:24:35.352Z,2.50
2023-11-07T08:27:01.982Z,2.65
2023-11-07T08:29:28.912Z,3.42
2023-11-07T08:31:56.199Z,2.95
2023-11-07T08:34:24.032Z,2.38
2023-11-07T08:36:56.923Z,2.70
2023-11-07T08:39:34.903Z,2.03
2023-11-07T08:42:01.467Z,2.38
2023-11-07T08:44:27.959Z,2.08
2023-11-07T08:46:54.364Z,1.42
2023-11-07T08:49:21.255Z,2.13
2023-11-07T08:51:52.625Z,2.05
2023-11-07T08:54:19.527Z,1.95
2023-11-07T08:56:50.236Z,2.45
2023-11-07T08:59:17.037Z,2.33
2023-11-07T09:01:43.665Z,2.70
2023-11-07T09:04:10.858Z,2.00
2023-11-07T09:06:41.516Z,2.47
2023-11-07T09:09:09.340Z,2.15
2023-11-07T09:11:36.124Z,2.00
2023-11-07T09:14:02.696Z,2.10
2023-11-07T09:16:30.262Z,1.90
2023-11-07T09:18:56.960Z,1.67
2023-11-07T09:21:23.508Z,1.63
2023-11-07T09:23:51.252Z,0.95
2023-11-07T09:26:18.668Z,1.77
2023-11-07T09:28:45.287Z,1.80
2023-11-07T09:31:13.413Z,1.98
2023-11-07T09:33:40.194Z,1.65
2023-11-07T09:36:08.094Z,1.73
2023-11-07T09:38:46.839Z,1.93
2023-11-07T09:41:18.855Z,1.38
2023-11-07T09:43:46.293Z,1.63
2023-11-07T09:46:13.027Z,1.42
2023-11-07T09:48:40.362Z,1.13
2023-11-07T09:51:10.889Z,1.73
2023-11-07T09:53:40.647Z,1.27
2023-11-07T09:56:11.869Z,1.42
2023-11-07T09:58:46.286Z,1.60
2023-11-07T10:01:13.225Z,1.70
2023-11-07T10:03:44.371Z,1.70
2023-11-07T10:06:11.821Z,1.42
2023-11-07T10:08:38.342Z,1.63
2023-11-07T10:11:12.787Z,1.02
2023-11-07T10:13:39.699Z,1.50
2023-11-07T10:18:49.730Z,1.27
2023-11-07T10:21:30.859Z,1.20
2023-11-07T10:23:57.471Z,1.10
2023-11-07T10:26:25.686Z,1.13
2023-11-07T10:29:06.212Z,1.00
2023-11-07T10:31:32.683Z,0.70
2023-11-07T10:34:18.709Z,1.10
2023-11-07T10:36:47.975Z,0.55
2023-11-07T10:39:18.985Z,0.82
2023-11-07T10:41:46.016Z,0.83
2023-11-07T10:44:26.532Z,0.70
2023-11-07T10:46:54.814Z,0.90
2023-11-07T10:49:22.769Z,0.80
2023-11-07T10:51:50.709Z,0.63
2023-11-07T10:54:21.485Z,0.60
2023-11-07T10:56:50.458Z,0.60
2023-11-07T10:59:22.011Z,0.60
2023-11-07T11:01:53.759Z,0.82
2023-11-07T11:04:23.889Z,0.50
2023-11-07T11:06:55.373Z,0.70
2023-11-07T11:09:23.757Z,0.57
2023-11-07T11:11:54.786Z,0.50
2023-11-07T11:14:21.402Z,0.63
2023-11-07T11:16:50.158Z,0.40
2023-11-07T11:19:25.594Z,0.60
2023-11-07T11:22:06.344Z,0.50
2023-11-07T11:24:47.623Z,0.50
2023-11-07T11:27:19.849Z,0.30
2023-11-07T11:29:50.652Z,1.13
2023-11-07T11:32:28.131Z,0.30
2023-11-07T11:35:18.614Z,0.60
2023-11-07T11:38:11.708Z,0.90
2023-11-07T11:41:01.369Z,0.50
2023-11-07T11:43:30.136Z,0.52
2023-11-07T11:46:00.980Z,0.40
2023-11-07T11:48:52.989Z,0.30
2023-11-07T11:51:37.610Z,0.43
2023-11-07T11:54:07.467Z,0.38
2023-11-07T11:56:57.043Z,0.30
2023-11-07T11:59:31.586Z,0.40
2023-11-07T12:02:00.556Z,0.73
2023-11-07T12:04:40.151Z,0.43
2023-11-07T12:07:16.415Z,0.22
2023-11-07T12:09:57.085Z,0.43
2023-11-07T12:12:23.694Z,0.37
2023-11-07T12:14:52.462Z,0.40
2023-11-07T12:17:19.821Z,0.38
2023-11-07T12:19:46.319Z,0.38
2023-11-07T12:22:12.945Z,0.88
2023-11-07T12:24:40.509Z,0.80
2023-11-07T12:27:07.347Z,0.40
2023-11-07T12:29:35.691Z,0.70
2023-11-07T12:32:07.021Z,0.35
2023-11-07T12:34:35.254Z,0.40
2023-11-07T12:37:15.047Z,0.30
2023-11-07T12:39:42.656Z,0.32
2023-11-07T12:42:12.430Z,0.32
2023-11-07T12:44:42.317Z,0.30
2023-11-07T12:47:11.940Z,0.32
2023-11-07T12:49:39.580Z,0.50
2023-11-07T12:52:13.013Z,0.60
2023-11-07T12:54:40.198Z,0.30
2023-11-07T12:57:06.779Z,0.50
2023-11-07T12:59:36.185Z,0.30
2023-11-07T13:02:02.965Z,0.50
2023-11-07T13:04:29.544Z,0.30
2023-11-07T13:06:57.953Z,0.47
2023-11-07T13:09:32.106Z,0.30
2023-11-07T13:12:12.430Z,0.50
2023-11-07T13:14:40.011Z,0.30
2023-11-07T13:17:08.504Z,0.45
2023-11-07T13:19:36.434Z,0.30
2023-11-07T13:22:04.729Z,0.22
2023-11-07T13:24:31.962Z,0.40
2023-11-07T13:26:58.604Z,0.40
2023-11-07T13:29:25.060Z,0.57
2023-11-07T13:31:51.535Z,0.55
2023-11-07T13:34:18.710Z,0.40
2023-11-07T13:36:45.643Z,0.40
2023-11-07T13:39:23.469Z,0.23
2023-11-07T13:41:50.716Z,0.30
2023-11-07T13:44:17.275Z,0.40
2023-11-07T13:46:43.831Z,0.50
2023-11-07T13:49:10.608Z,0.20
2023-11-07T13:51:39.477Z,0.40
2023-11-07T13:54:09.544Z,0.50
2023-11-07T13:56:36.520Z,0.57
2023-11-07T13:59:06.408Z,0.30
2023-11-07T14:01:37.162Z,0.30
2023-11-07T14:04:04.052Z,0.20
2023-11-07T14:06:30.671Z,0.32
2023-11-07T14:08:57.400Z,0.40
2023-11-07T14:11:23.849Z,0.25
2023-11-07T14:13:51.753Z,0.20
2023-11-07T14:16:18.889Z,0.40
2023-11-07T14:18:46.463Z,0.30
2023-11-07T14:21:16.258Z,0.50
2023-11-07T14:23:46.023Z,0.30
2023-11-07T14:26:12.459Z,0.30
2023-11-07T14:28:50.044Z,0.53
2023-11-07T14:31:21.626Z,0.45
2023-11-07T14:33:48.981Z,0.30
2023-11-07T14:36:16.034Z,0.40
2023-11-07T14:38:43.633Z,0.50
2023-11-07T14:41:11.030Z,0.30
2023-11-07T14:43:37.890Z,0.30
2023-11-07T14:46:06.414Z,0.30
2023-11-07T14:48:34.148Z,0.30
2023-11-07T14:51:01.006Z,0.47
2023-11-07T14:53:28.105Z,0.43
2023-11-07T14:55:56.600Z,0.43
2023-11-07T14:58:25.981Z,0.35
2023-11-07T15:00:55.187Z,0.40
2023-11-07T15:03:22.021Z,0.35
2023-11-07T15:05:50.984Z,0.30
2023-11-07T15:08:17.654Z,1.40
2023-11-07T15:10:44.300Z,0.40
2023-11-07T15:13:11.944Z,0.38
2023-11-07T15:15:38.418Z,0.30
2023-11-07T15:18:05.570Z,0.40
2023-11-07T15:20:33.141Z,0.38
2023-11-07T15:23:02.391Z,0.60
2023-11-07T15:25:35.205Z,0.40
2023-11-07T15:28:02.256Z,0.40
2023-11-07T15:30:28.913Z,0.30
2023-11-07T15:32:58.083Z,0.52
2023-11-07T15:35:25.524Z,0.30
2023-11-07T15:37:52.519Z,0.47
2023-11-07T15:40:22.002Z,0.40
2023-11-07T15:42:50.919Z,0.40
2023-11-07T15:45:19.887Z,0.75
2023-11-07T15:47:47.858Z,0.30
2023-11-07T15:50:16.633Z,0.40
2023-11-07T15:52:59.821Z,0.30
2023-11-07T15:55:34.902Z,0.60
2023-11-07T15:58:01.542Z,0.38
2023-11-07T16:00:29.017Z,0.57
2023-11-07T16:02:55.808Z,0.47
2023-11-07T16:05:27.378Z,2.20
2023-11-07T16:07:54.726Z,0.50
2023-11-07T16:10:21.428Z,0.55
2023-11-07T16:12:47.886Z,0.73
2023-11-07T16:15:15.871Z,0.55
2023-11-07T16:17:49.816Z,0.60
2023-11-07T16:20:23.336Z,0.50
2023-11-07T16:22:49.888Z,0.50
2023-11-07T16:25:19.993Z,0.75
2023-11-07T16:27:46.794Z,0.50
2023-11-07T16:30:15.099Z,0.43
2023-11-07T16:32:42.178Z,0.47
2023-11-07T16:35:09.258Z,0.25
2023-11-07T16:37:35.853Z,0.25
2023-11-07T16:40:03.993Z,0.40
2023-11-07T16:42:32.247Z,0.40
2023-11-07T16:44:59.019Z,0.40
2023-11-07T16:47:25.743Z,0.50
2023-11-07T16:49:52.332Z,0.38
2023-11-07T16:52:20.955Z,0.40
2023-11-07T16:54:47.643Z,0.50
2023-11-07T16:57:14.141Z,0.97
2023-11-07T16:59:44.134Z,1.52
2023-11-07T17:02:11.390Z,1.42
2023-11-07T17:04:38.393Z,0.95
2023-11-07T17:07:05.863Z,0.80
2023-11-07T17:09:34.065Z,0.70
2023-11-07T17:12:01.026Z,0.73
2023-11-07T17:14:27.568Z,0.50
2023-11-07T17:16:54.818Z,0.70
2023-11-07T17:19:21.300Z,0.50
2023-11-07T17:21:49.232Z,0.57
2023-11-07T17:24:17.027Z,0.47
2023-11-07T17:26:43.601Z,0.38
2023-11-07T17:29:11.220Z,0.50
2023-11-07T17:31:38.766Z,0.60
2023-11-07T17:34:08.225Z,0.60
2023-11-07T17:36:36.188Z,0.52
2023-11-07T17:39:04.550Z,1.15
2023-11-07T17:41:33.192Z,1.00
2023-11-07T17:43:59.922Z,0.60
2023-11-07T17:46:26.530Z,0.60
2023-11-07T17:48:53.134Z,0.50
2023-11-07T17:51:23.274Z,0.60
2023-11-07T17:53:53.274Z,0.50
2023-11-07T17:56:21.035Z,0.60
2023-11-07T17:58:48.278Z,0.50
2023-11-07T18:01:19.858Z,0.45
2023-11-07T18:03:46.956Z,0.52
2023-11-07T18:06:13.475Z,0.50
2023-11-07T18:08:40.360Z,0.50
2023-11-07T18:11:08.553Z,0.40
2023-11-07T18:13:35.829Z,0.45
2023-11-07T18:16:02.447Z,0.50
2023-11-07T18:18:29.106Z,0.50
2023-11-07T18:20:55.701Z,0.60
2023-11-07T18:23:22.164Z,0.40
2023-11-07T18:25:48.691Z,0.50
2023-11-07T18:28:15.177Z,0.47
2023-11-07T18:30:43.320Z,0.40
2023-11-07T18:33:09.914Z,0.65
2023-11-07T18:35:36.552Z,0.70
2023-11-07T18:38:03.034Z,0.40
2023-11-07T18:40:29.468Z,0.52
2023-11-07T18:42:55.887Z,0.40
2023-11-07T18:45:22.317Z,0.40
2023-11-07T18:47:49.441Z,0.40
2023-11-07T18:50:17.414Z,0.40
2023-11-07T18:52:43.876Z,0.40
2023-11-07T18:55:10.767Z,0.57
2023-11-07T18:57:37.626Z,0.50
2023-11-07T19:00:05.240Z,0.70
2023-11-07T19:02:31.891Z,0.60
2023-11-07T19:04:59.600Z,0.50
2023-11-07T19:07:26.819Z,0.85
2023-11-07T19:09:53.551Z,0.50
2023-11-07T19:12:20.268Z,0.50
2023-11-07T19:14:46.871Z,0.80
2023-11-07T19:17:13.522Z,0.60
2023-11-07T19:19:39.985Z,0.70
2023-11-07T19:22:06.520Z,0.75
2023-11-07T19:24:33.037Z,0.60
2023-11-07T19:27:00.314Z,0.57
2023-11-07T19:29:27.118Z,0.60
2023-11-07T19:31:55.083Z,0.50
2023-11-07T19:34:22.663Z,0.47
2023-11-07T19:36:51.398Z,0.30
2023-11-07T19:39:36.212Z,0.50
2023-11-07T19:42:04.849Z,0.55
2023-11-07T19:44:31.788Z,0.65
2023-11-07T19:46:58.547Z,0.47
2023-11-07T19:49:26.693Z,0.70
2023-11-07T19:51:53.742Z,0.82
2023-11-07T19:54:20.183Z,0.63
2023-11-07T19:56:46.814Z,0.70
2023-11-07T19:59:13.422Z,0.57
2023-11-07T20:01:40.178Z,0.70
2023-11-07T20:04:07.162Z,0.80
2023-11-07T20:06:33.845Z,0.90
2023-11-07T20:09:00.523Z,0.77
2023-11-07T20:11:27.120Z,0.65
2023-11-07T20:13:53.918Z,0.73
2023-11-07T20:16:20.418Z,0.90
2023-11-07T20:18:47.102Z,0.70
2023-11-07T20:21:15.982Z,0.60
2023-11-07T20:23:42.789Z,1.20
2023-11-07T20:26:09.254Z,0.90
2023-11-07T20:28:35.732Z,0.63
2023-11-07T20:31:03.924Z,0.60
2023-11-07T20:33:41.308Z,0.73
2023-11-07T20:36:19.656Z,1.00
2023-11-07T20:38:47.665Z,0.90
2023-11-07T20:41:18.538Z,0.60
2023-11-07T20:43:46.197Z,0.68
2023-11-07T20:46:31.171Z,0.68
2023-11-07T20:49:03.431Z,1.00
2023-11-07T20:51:32.236Z,1.07
2023-11-07T20:53:59.318Z,0.73
2023-11-07T20:56:29.489Z,0.90
2023-11-07T20:58:57.606Z,1.00
2023-11-07T21:01:24.257Z,1.15
2023-11-07T21:03:50.888Z,1.10
2023-11-07T21:06:17.653Z,1.10
2023-11-07T21:08:45.168Z,1.40
2023-11-07T21:11:13.652Z,0.95
2023-11-07T21:13:40.177Z,1.00
2023-11-07T21:16:08.252Z,1.50
2023-11-07T21:18:34.749Z,1.55
2023-11-07T21:21:01.206Z,1.08
2023-11-07T21:23:28.190Z,1.13
2023-11-07T21:25:54.637Z,1.30
2023-11-07T21:28:21.101Z,1.00
2023-11-07T21:30:48.024Z,1.00
2023-11-07T21:33:15.576Z,1.20
2023-11-07T21:35:43.801Z,1.20
2023-11-07T21:38:10.402Z,0.88
2023-11-07T21:40:40.640Z,1.33
2023-11-07T21:43:07.495Z,1.52
2023-11-07T21:45:33.965Z,1.70
2023-11-07T21:48:00.744Z,1.73
2023-11-07T21:50:28.096Z,1.52
2023-11-07T21:52:54.926Z,2.50
2023-11-07T21:55:22.103Z,2.17
2023-11-07T21:57:48.921Z,1.60
2023-11-07T22:00:16.545Z,1.60
2023-11-07T22:02:44.452Z,2.10
2023-11-07T22:05:16.206Z,1.57
2023-11-07T22:07:43.616Z,2.03
2023-11-07T22:10:15.017Z,1.52
2023-11-07T22:12:44.991Z,1.83
2023-11-07T22:15:14.652Z,1.95
2023-11-07T22:17:42.342Z,2.23
2023-11-07T22:20:11.408Z,2.17
2023-11-07T22:22:40.681Z,1.60
2023-11-07T22:25:09.712Z,1.65
2023-11-07T22:27:36.695Z,1.95
2023-11-07T22:30:09.725Z,1.90
2023-11-07T22:32:38.418Z,1.85
2023-11-07T22:35:05.770Z,2.00
2023-11-07T22:37:32.531Z,0.80
2023-11-07T22:39:59.102Z,1.73
2023-11-07T22:42:25.744Z,1.70
2023-11-07T22:44:52.452Z,1.73
2023-11-07T22:47:18.925Z,1.80
2023-11-07T22:49:45.390Z,2.00
2023-11-07T22:52:14.467Z,1.80
2023-11-07T22:54:41.178Z,1.70
2023-11-07T22:57:07.685Z,1.02
2023-11-07T22:59:34.084Z,2.13
2023-11-07T23:02:00.499Z,1.77
2023-11-07T23:04:26.914Z,1.90
2023-11-07T23:06:56.707Z,1.97
2023-11-07T23:09:24.610Z,1.25
2023-11-07T23:11:51.109Z,1.90
2023-11-07T23:14:17.685Z,1.95
2023-11-07T23:16:44.115Z,1.45
2023-11-07T23:19:12.641Z,1.57
2023-11-07T23:21:39.221Z,1.70
2023-11-07T23:24:06.433Z,1.63
2023-11-07T23:26:38.548Z,1.77
2023-11-07T23:29:08.492Z,2.10
2023-11-07T23:31:34.998Z,2.20
2023-11-07T23:34:01.560Z,1.83
2023-11-07T23:36:28.138Z,1.75
2023-11-07T23:38:54.610Z,2.20
2023-11-07T23:41:22.530Z,1.73
2023-11-07T23:43:49.170Z,1.73
2023-11-07T23:46:15.672Z,2.28
2023-11-07T23:48:42.198Z,1.90
2023-11-07T23:51:09.283Z,2.08
2023-11-07T23:53:35.793Z,2.05
2023-11-07T23:56:02.313Z,1.80
2023-11-07T23:58:28.755Z,1.90
